createdAt,value
2023-05-10T00:00:32.626Z,99704.75
2023-05-10T00:02:59.270Z,99706.31
2023-05-10T00:05:25.920Z,99710.91
2023-05-10T00:07:52.480Z,99714.78
2023-05-10T00:10:19.169Z,99715.88
2023-05-10T00:12:45.885Z,99703.50
2023-05-10T00:15:12.486Z,99704.72
2023-05-10T00:17:39.065Z,99711.47
2023-05-10T00:20:06.321Z,99706.78
2023-05-10T00:22:33.169Z,99709.19
2023-05-10T00:25:00.370Z,99709.22
2023-05-10T00:27:26.955Z,99707.19
2023-05-10T00:29:53.488Z,99697.69
2023-05-10T00:32:20.095Z,99702.00
2023-05-10T00:34:46.664Z,99695.63
2023-05-10T00:37:13.177Z,99695.03
2023-05-10T00:39:39.669Z,99696.88
2023-05-10T00:42:06.218Z,99690.84
2023-05-10T00:44:32.781Z,99676.72
2023-05-10T00:47:00.321Z,99683.13
2023-05-10T00:49:27.100Z,99682.06
2023-05-10T00:51:53.927Z,99677.25
2023-05-10T00:54:20.598Z,99681.31
2023-05-10T00:56:49.877Z,99678.09
2023-05-10T00:59:18.099Z,99680.13
2023-05-10T01:01:45.996Z,99678.94
2023-05-10T01:04:16.205Z,99678.31
2023-05-10T01:06:43.458Z,99679.66
2023-05-10T01:09:10.980Z,99674.75
2023-05-10T01:11:39.565Z,99674.13
2023-05-10T01:14:07.051Z,99676.41
2023-05-10T01:16:38.153Z,99662.56
2023-05-10T01:19:19.627Z,99679.09
2023-05-10T01:21:55.443Z,99674.28
2023-05-10T01:24:43.409Z,99675.84
2023-05-10T01:27:53.910Z,99672.09
2023-05-10T01:30:45.235Z,99677.88
2023-05-10T01:33:40.943Z,99671.53
2023-05-10T01:36:26.985Z,99673.69
2023-05-10T01:39:04.554Z,99671.88
2023-05-10T01:41:39.240Z,99668.03
2023-05-10T01:44:17.650Z,99668.88
2023-05-10T01:46:44.265Z,99666.84
2023-05-10T01:49:20.826Z,99673.81
2023-05-10T01:51:52.413Z,99665.25
2023-05-10T01:54:21.283Z,99667.53
2023-05-10T01:56:53.636Z,99668.75
2023-05-10T01:59:20.974Z,99658.84
2023-05-10T02:01:49.839Z,99670.66
2023-05-10T02:04:18.132Z,99669.44
2023-05-10T02:06:48.915Z,99663.94
2023-05-10T02:09:16.760Z,99657.66
2023-05-10T02:11:45.198Z,99665.13
2023-05-10T02:14:12.532Z,99667.06
2023-05-10T02:16:40.758Z,99653.44
2023-05-10T02:19:09.511Z,99651.50
2023-05-10T02:21:36.902Z,99652.81
2023-05-10T02:24:05.231Z,99653.78
2023-05-10T02:26:34.008Z,99655.00
2023-05-10T02:29:04.384Z,99659.09
2023-05-10T02:31:34.183Z,99652.59
2023-05-10T02:34:02.500Z,99650.78
2023-05-10T02:36:30.359Z,99662.69
2023-05-10T02:38:58.486Z,99655.00
2023-05-10T02:41:27.346Z,99653.06
2023-05-10T02:43:58.251Z,99657.25
2023-05-10T02:46:24.994Z,99649.41
2023-05-10T02:48:51.595Z,99648.13
2023-05-10T02:51:20.709Z,99650.97
2023-05-10T02:53:50.175Z,99652.53
2023-05-10T02:56:29.811Z,99648.59
2023-05-10T02:58:56.538Z,99646.50
2023-05-10T03:01:23.347Z,99654.19
2023-05-10T03:03:49.904Z,99652.38
2023-05-10T03:06:17.373Z,99658.44
2023-05-10T03:08:45.370Z,99662.53
2023-05-10T03:11:40.113Z,99663.06
2023-05-10T03:14:18.902Z,99657.09
2023-05-10T03:16:57.802Z,99661.22
2023-05-10T03:19:31.213Z,99653.13
2023-05-10T03:22:03.157Z,99653.66
2023-05-10T03:24:31.010Z,99651.09
2023-05-10T03:27:03.834Z,99648.91
2023-05-10T03:29:31.776Z,99650.69
2023-05-10T03:32:01.432Z,99652.28
2023-05-10T03:34:30.814Z,99649.13
2023-05-10T03:36:57.403Z,99639.66
2023-05-10T03:39:23.978Z,99635.19
2023-05-10T03:41:50.524Z,99636.63
2023-05-10T03:44:17.403Z,99632.44
2023-05-10T03:46:44.109Z,99636.56
2023-05-10T03:49:10.685Z,99651.94
2023-05-10T03:51:37.352Z,99657.34
2023-05-10T03:54:04.035Z,99657.69
2023-05-10T03:56:31.059Z,99663.69
2023-05-10T03:58:57.577Z,99673.31
2023-05-10T04:01:24.124Z,99657.44
2023-05-10T04:03:50.801Z,99659.19
2023-05-10T04:06:17.463Z,99663.75
2023-05-10T04:08:44.076Z,99663.47
2023-05-10T04:11:12.502Z,99670.09
2023-05-10T04:13:39.511Z,99670.28
2023-05-10T04:16:06.367Z,99664.59
2023-05-10T04:18:32.998Z,99663.47
2023-05-10T04:20:59.613Z,99667.31
2023-05-10T04:23:26.173Z,99659.69
2023-05-10T04:25:52.686Z,99667.22
2023-05-10T04:28:19.337Z,99657.41
2023-05-10T04:30:46.677Z,99656.59
2023-05-10T04:33:13.211Z,99653.03
2023-05-10T04:35:41.038Z,99644.94
2023-05-10T04:38:07.850Z,99655.91
2023-05-10T04:40:35.204Z,99660.88
2023-05-10T04:43:01.729Z,99649.06
2023-05-10T04:45:28.270Z,99645.75
2023-05-10T04:47:54.852Z,99642.28
2023-05-10T04:50:21.395Z,99641.75
2023-05-10T04:52:47.922Z,99632.16
2023-05-10T04:55:14.714Z,99632.16
2023-05-10T04:57:41.309Z,99635.53
2023-05-10T05:00:08.366Z,99638.53
2023-05-10T05:02:34.988Z,99632.03
2023-05-10T05:05:01.555Z,99639.03
2023-05-10T05:07:28.141Z,99641.41
2023-05-10T05:09:54.657Z,99619.09
2023-05-10T05:12:21.175Z,99630.16
2023-05-10T05:14:47.673Z,99629.91
2023-05-10T05:17:14.237Z,99628.09
2023-05-10T05:19:41.019Z,99635.56
2023-05-10T05:22:09.180Z,99635.78
2023-05-10T05:24:37.517Z,99629.03
2023-05-10T05:27:04.057Z,99642.41
2023-05-10T05:29:30.752Z,99636.94
2023-05-10T05:31:57.321Z,99628.63
2023-05-10T05:34:24.002Z,99640.06
2023-05-10T05:36:50.802Z,99624.69
2023-05-10T05:39:17.375Z,99630.50
2023-05-10T05:41:44.501Z,99629.44
2023-05-10T05:44:11.066Z,99629.28
2023-05-10T05:46:37.611Z,99629.81
2023-05-10T05:49:04.138Z,99631.13
2023-05-10T05:51:30.657Z,99637.16
2023-05-10T05:53:57.169Z,99633.69
2023-05-10T05:56:26.330Z,99638.69
2023-05-10T05:58:52.921Z,99639.44
2023-05-10T06:01:19.663Z,99642.53
2023-05-10T06:03:46.302Z,99636.78
2023-05-10T06:06:13.542Z,99645.97
2023-05-10T06:08:40.075Z,99632.78
2023-05-10T06:11:08.098Z,99644.84
2023-05-10T06:13:36.263Z,99638.94
2023-05-10T06:16:03.892Z,99638.72
2023-05-10T06:18:30.484Z,99645.25
2023-05-10T06:20:57.123Z,99652.19
2023-05-10T06:23:23.700Z,99642.72
2023-05-10T06:25:50.237Z,99654.03
2023-05-10T06:28:16.826Z,99651.16
2023-05-10T06:30:43.646Z,99647.91
2023-05-10T06:33:10.274Z,99642.63
2023-05-10T06:35:37.800Z,99650.22
2023-05-10T06:38:04.426Z,99652.28
2023-05-10T06:40:31.007Z,99649.66
2023-05-10T06:42:57.566Z,99645.34
2023-05-10T06:45:24.075Z,99651.78
2023-05-10T06:47:50.675Z,99649.53
2023-05-10T06:50:17.279Z,99650.38
2023-05-10T06:52:44.136Z,99646.75
2023-05-10T06:55:11.110Z,99647.28
2023-05-10T06:57:37.724Z,99645.19
2023-05-10T07:00:07.890Z,99646.16
2023-05-10T07:02:34.567Z,99652.47
2023-05-10T07:05:15.404Z,99643.50
2023-05-10T07:07:42.125Z,99651.50
2023-05-10T07:10:09.008Z,99650.38
2023-05-10T07:12:35.618Z,99653.72
2023-05-10T07:15:02.368Z,99646.13
2023-05-10T07:17:28.986Z,99649.75
2023-05-10T07:19:55.615Z,99650.47
2023-05-10T07:22:22.140Z,99642.16
2023-05-10T07:24:48.709Z,99649.31
2023-05-10T07:27:15.367Z,99645.78
2023-05-10T07:29:41.974Z,99641.00
2023-05-10T07:32:08.609Z,99656.03
2023-05-10T07:34:35.274Z,99649.00
2023-05-10T07:37:02.089Z,99649.56
2023-05-10T07:39:28.923Z,99653.63
2023-05-10T07:41:56.455Z,99647.94
2023-05-10T07:44:23.379Z,99651.00
2023-05-10T07:46:50.080Z,99647.22
2023-05-10T07:49:17.556Z,99649.28
2023-05-10T07:51:44.330Z,99644.72
2023-05-10T07:54:10.923Z,99641.72
2023-05-10T07:56:37.447Z,99641.22
2023-05-10T07:59:09.300Z,99646.22
2023-05-10T08:01:36.887Z,99650.66
2023-05-10T08:04:03.558Z,99643.59
2023-05-10T08:06:31.192Z,99641.94
2023-05-10T08:08:58.120Z,99641.34
2023-05-10T08:11:24.666Z,99644.22
2023-05-10T08:13:52.116Z,99642.16
2023-05-10T08:16:18.974Z,99646.13
2023-05-10T08:18:47.744Z,99645.63
2023-05-10T08:21:15.381Z,99647.69
2023-05-10T08:23:42.018Z,99648.19
2023-05-10T08:26:08.577Z,99645.75
2023-05-10T08:28:35.111Z,99649.50
2023-05-10T08:31:01.634Z,99651.75
2023-05-10T08:33:28.172Z,99652.91
2023-05-10T08:35:54.751Z,99653.66
2023-05-10T08:38:21.299Z,99658.75
2023-05-10T08:40:51.785Z,99658.66
2023-05-10T08:43:19.207Z,99667.38
2023-05-10T08:45:48.014Z,99660.03
2023-05-10T08:48:14.985Z,99662.47
2023-05-10T08:50:43.045Z,99670.84
2023-05-10T08:53:14.431Z,99681.22
2023-05-10T08:55:43.791Z,99676.59
2023-05-10T08:58:10.582Z,99686.69
2023-05-10T09:00:40.737Z,99681.19
2023-05-10T09:03:08.108Z,99679.41
2023-05-10T09:05:34.870Z,99675.09
2023-05-10T09:08:04.225Z,99684.66
2023-05-10T09:10:31.918Z,99687.13
2023-05-10T09:12:59.614Z,99684.16
2023-05-10T09:15:26.931Z,99688.84
2023-05-10T09:17:53.881Z,99687.06
2023-05-10T09:20:21.427Z,99683.41
2023-05-10T09:22:48.371Z,99688.84
2023-05-10T09:25:16.729Z,99686.66
2023-05-10T09:27:48.661Z,99681.84
2023-05-10T09:30:33.042Z,99683.84
2023-05-10T09:33:00.681Z,99683.34
2023-05-10T09:35:31.178Z,99694.03
2023-05-10T09:38:01.368Z,99684.69
2023-05-10T09:40:29.704Z,99692.06
2023-05-10T09:43:00.307Z,99691.41
2023-05-10T09:45:29.054Z,99691.41
2023-05-10T09:47:56.481Z,99695.94
2023-05-10T09:50:24.138Z,99693.78
2023-05-10T09:52:59.414Z,99685.06
2023-05-10T09:55:40.806Z,99688.75
2023-05-10T09:58:11.392Z,99690.41
2023-05-10T10:00:41.178Z,99694.59
2023-05-10T10:03:14.022Z,99689.44
2023-05-10T10:05:42.735Z,99683.22
2023-05-10T10:08:09.449Z,99686.38
2023-05-10T10:10:36.333Z,99684.66
2023-05-10T10:13:03.853Z,99679.56
2023-05-10T10:15:30.588Z,99687.25
2023-05-10T10:17:57.186Z,99681.34
2023-05-10T10:20:24.277Z,99685.03
2023-05-10T10:22:51.495Z,99686.72
2023-05-10T10:25:20.035Z,99676.88
2023-05-10T10:27:52.649Z,99689.53
2023-05-10T10:30:43.542Z,99684.84
2023-05-10T10:33:20.175Z,99682.16
2023-05-10T10:35:55.361Z,99677.94
2023-05-10T10:38:21.975Z,99678.06
2023-05-10T10:40:48.981Z,99690.91
2023-05-10T10:43:22.955Z,99687.75
2023-05-10T10:46:18.563Z,99686.84
2023-05-10T10:48:50.841Z,99684.19
2023-05-10T10:51:17.622Z,99691.38
2023-05-10T10:53:44.668Z,99690.66
2023-05-10T10:56:14.505Z,99689.81
2023-05-10T10:58:41.865Z,99682.94
2023-05-10T11:01:16.600Z,99690.19
2023-05-10T11:04:16.090Z,99692.22
2023-05-10T11:06:43.478Z,99686.78
2023-05-10T11:09:12.609Z,99688.34
2023-05-10T11:11:59.415Z,99692.00
2023-05-10T11:14:26.813Z,99694.78
2023-05-10T11:16:53.614Z,99686.34
2023-05-10T11:19:20.731Z,99684.22
2023-05-10T11:21:47.584Z,99689.28
2023-05-10T11:24:16.207Z,99698.63
2023-05-10T11:26:43.258Z,99690.50
2023-05-10T11:29:10.042Z,99696.59
2023-05-10T11:31:44.781Z,99691.00
2023-05-10T11:34:12.022Z,99697.78
2023-05-10T11:36:38.630Z,99700.38
2023-05-10T11:39:06.025Z,99701.59
2023-05-10T11:41:32.874Z,99702.94
2023-05-10T11:43:59.857Z,99692.94
2023-05-10T11:46:28.536Z,99699.88
2023-05-10T11:48:58.879Z,99702.88
2023-05-10T11:51:26.255Z,99704.94
2023-05-10T11:53:57.233Z,99699.69
2023-05-10T11:56:24.504Z,99697.16
2023-05-10T11:58:58.450Z,99697.25
2023-05-10T12:01:27.420Z,99701.59
2023-05-10T12:03:54.916Z,99699.19
2023-05-10T12:06:22.350Z,99708.69
2023-05-10T12:08:53.584Z,99707.34
2023-05-10T12:11:21.887Z,99706.78
2023-05-10T12:13:48.528Z,99709.41
2023-05-10T12:16:20.288Z,99700.03
2023-05-10T12:18:50.049Z,99706.88
2023-05-10T12:21:16.704Z,99710.16
2023-05-10T12:23:45.982Z,99711.00
2023-05-10T12:26:12.592Z,99707.91
2023-05-10T12:28:40.617Z,99715.22
2023-05-10T12:31:07.817Z,99713.13
2023-05-10T12:33:43.491Z,99718.63
2023-05-10T12:36:24.924Z,99711.38
2023-05-10T12:38:53.282Z,99715.63
2023-05-10T12:41:19.951Z,99711.44
2023-05-10T12:43:47.330Z,99720.41
2023-05-10T12:46:15.765Z,99724.06
2023-05-10T12:48:43.846Z,99718.16
2023-05-10T12:51:12.794Z,99720.56
2023-05-10T12:53:42.551Z,99722.31
2023-05-10T12:56:11.183Z,99723.50
2023-05-10T12:58:37.824Z,99731.28
2023-05-10T13:01:05.877Z,99730.81
2023-05-10T13:03:32.559Z,99725.88
2023-05-10T13:05:59.205Z,99735.28
2023-05-10T13:08:25.948Z,99720.22
2023-05-10T13:10:52.717Z,99728.06
2023-05-10T13:13:19.304Z,99734.63
2023-05-10T13:15:45.957Z,99723.03
2023-05-10T13:18:12.621Z,99726.88
2023-05-10T13:20:39.350Z,99732.88
2023-05-10T13:23:06.071Z,99736.75
2023-05-10T13:25:32.659Z,99749.78
2023-05-10T13:27:59.158Z,99735.97
2023-05-10T13:30:26.088Z,99738.22
2023-05-10T13:32:52.692Z,99729.28
2023-05-10T13:35:19.319Z,99720.63
2023-05-10T13:37:45.822Z,99729.88
2023-05-10T13:40:12.625Z,99735.63
2023-05-10T13:42:39.257Z,99733.81
2023-05-10T13:45:06.488Z,99716.63
2023-05-10T13:47:33.123Z,99739.69
2023-05-10T13:49:59.751Z,99730.22
2023-05-10T13:52:27.332Z,99727.41
2023-05-10T13:54:55.963Z,99718.78
2023-05-10T13:57:23.109Z,99718.56
2023-05-10T13:59:49.957Z,99725.63
2023-05-10T14:02:16.513Z,99722.94
2023-05-10T14:04:43.038Z,99725.78
2023-05-10T14:07:09.547Z,99728.53
2023-05-10T14:09:36.034Z,99721.47
2023-05-10T14:12:03.055Z,99727.88
2023-05-10T14:14:30.461Z,99718.88
2023-05-10T14:16:57.236Z,99716.16
2023-05-10T14:19:23.841Z,99717.28
2023-05-10T14:21:50.483Z,99711.38
2023-05-10T14:24:17.016Z,99720.41
2023-05-10T14:26:43.566Z,99716.38
2023-05-10T14:29:12.252Z,99718.91
2023-05-10T14:31:39.322Z,99710.47
2023-05-10T14:34:06.804Z,99713.13
2023-05-10T14:36:33.584Z,99710.28
2023-05-10T14:39:00.296Z,99705.34
2023-05-10T14:41:27.005Z,99708.91
2023-05-10T14:43:54.154Z,99707.13
2023-05-10T14:46:20.874Z,99721.19
2023-05-10T14:48:47.548Z,99718.03
2023-05-10T14:51:14.167Z,99721.16
2023-05-10T14:53:40.678Z,99727.38
2023-05-10T14:56:08.062Z,99720.91
2023-05-10T14:58:34.696Z,99730.94
2023-05-10T15:01:01.754Z,99730.16
2023-05-10T15:03:29.112Z,99742.88
2023-05-10T15:05:58.503Z,99727.28
2023-05-10T15:08:28.817Z,99729.75
2023-05-10T15:10:56.892Z,99735.47
2023-05-10T15:13:23.479Z,99745.72
2023-05-10T15:15:50.004Z,99739.03
2023-05-10T15:18:16.638Z,99745.22
2023-05-10T15:20:43.268Z,99740.91
2023-05-10T15:23:09.855Z,99748.94
2023-05-10T15:25:38.173Z,99749.16
2023-05-10T15:28:07.975Z,99751.59
2023-05-10T15:30:34.518Z,99749.09
2023-05-10T15:33:01.143Z,99755.63
2023-05-10T15:35:27.973Z,99753.84
2023-05-10T15:37:54.506Z,99751.63
2023-05-10T15:40:21.132Z,99752.50
2023-05-10T15:42:47.777Z,99759.00
2023-05-10T15:45:14.569Z,99754.91
2023-05-10T15:47:41.343Z,99753.00
2023-05-10T15:50:08.495Z,99755.09
2023-05-10T15:52:36.067Z,99753.44
2023-05-10T15:55:03.576Z,99762.34
2023-05-10T15:57:30.339Z,99755.16
2023-05-10T15:59:56.886Z,99766.53
2023-05-10T16:02:23.668Z,99765.69
2023-05-10T16:04:50.349Z,99766.16
2023-05-10T16:07:16.915Z,99763.13
2023-05-10T16:09:43.509Z,99760.78
2023-05-10T16:12:10.102Z,99770.38
2023-05-10T16:14:36.726Z,99766.28
2023-05-10T16:17:04.306Z,99769.97
2023-05-10T16:19:31.278Z,99773.19
2023-05-10T16:21:57.945Z,99769.53
2023-05-10T16:24:25.155Z,99776.88
2023-05-10T16:26:52.063Z,99774.72
2023-05-10T16:29:18.602Z,99773.34
2023-05-10T16:31:45.357Z,99774.50
2023-05-10T16:34:12.043Z,99784.59
2023-05-10T16:36:38.894Z,99786.88
2023-05-10T16:39:05.496Z,99789.69
2023-05-10T16:41:35.385Z,99793.84
2023-05-10T16:44:03.634Z,99798.66
2023-05-10T16:46:30.234Z,99799.00
2023-05-10T16:48:56.848Z,99800.88
2023-05-10T16:51:23.397Z,99799.84
2023-05-10T16:53:49.975Z,99800.63
2023-05-10T16:56:18.360Z,99804.84
2023-05-10T16:58:44.919Z,99813.81
2023-05-10T17:01:11.556Z,99814.00
2023-05-10T17:03:38.272Z,99812.16
2023-05-10T17:06:06.088Z,99817.56
2023-05-10T17:08:33.413Z,99818.06
2023-05-10T17:11:03.980Z,99815.81
2023-05-10T17:13:30.991Z,99813.59
2023-05-10T17:15:57.691Z,99823.19
2023-05-10T17:18:24.405Z,99825.59
2023-05-10T17:20:55.563Z,99827.31
2023-05-10T17:23:22.073Z,99828.41
2023-05-10T17:25:48.630Z,99828.06
2023-05-10T17:28:15.308Z,99829.03
2023-05-10T17:30:41.849Z,99830.25
2023-05-10T17:33:08.427Z,99836.28
2023-05-10T17:35:35.025Z,99830.50
2023-05-10T17:38:01.600Z,99834.09
2023-05-10T17:40:28.295Z,99832.28
2023-05-10T17:42:54.876Z,99836.47
2023-05-10T17:45:21.826Z,99846.78
2023-05-10T17:47:48.564Z,99844.56
2023-05-10T17:50:15.712Z,99845.81
2023-05-10T17:52:42.305Z,99848.31
2023-05-10T17:55:09.064Z,99847.47
2023-05-10T17:57:38.064Z,99848.09
2023-05-10T18:00:06.486Z,99860.25
2023-05-10T18:02:33.251Z,99846.56
2023-05-10T18:05:01.332Z,99856.47
2023-05-10T18:07:29.971Z,99863.13
2023-05-10T18:09:59.522Z,99862.88
2023-05-10T18:12:26.184Z,99862.78
2023-05-10T18:14:52.772Z,99865.75
2023-05-10T18:17:19.477Z,99868.00
2023-05-10T18:19:46.009Z,99866.59
2023-05-10T18:22:12.679Z,99870.31
2023-05-10T18:24:41.231Z,99872.81
2023-05-10T18:27:11.334Z,99878.72
2023-05-10T18:29:38.127Z,99874.50
2023-05-10T18:32:05.068Z,99879.97
2023-05-10T18:34:31.629Z,99879.28
2023-05-10T18:36:58.235Z,99879.66
2023-05-10T18:39:25.055Z,99875.00
2023-05-10T18:41:51.864Z,99883.03
2023-05-10T18:44:19.133Z,99883.19
2023-05-10T18:46:46.312Z,99883.09
2023-05-10T18:49:13.144Z,99888.03
2023-05-10T18:51:39.759Z,99888.75
2023-05-10T18:54:06.388Z,99888.19
2023-05-10T18:56:35.163Z,99896.22
2023-05-10T18:59:01.814Z,99896.38
2023-05-10T19:01:28.469Z,99904.00
2023-05-10T19:03:55.085Z,99903.00
2023-05-10T19:06:24.293Z,99905.72
2023-05-10T19:08:50.913Z,99907.56
2023-05-10T19:11:22.012Z,99905.31
2023-05-10T19:13:48.835Z,99913.75
2023-05-10T19:16:16.848Z,99909.53
2023-05-10T19:18:44.481Z,99919.78
2023-05-10T19:21:11.504Z,99919.38
2023-05-10T19:23:42.950Z,99928.06
2023-05-10T19:26:10.905Z,99924.84
2023-05-10T19:28:37.773Z,99932.81
2023-05-10T19:31:04.659Z,99921.44
2023-05-10T19:33:31.642Z,99926.53
2023-05-10T19:35:58.263Z,99927.94
2023-05-10T19:38:25.570Z,99924.28
2023-05-10T19:40:59.368Z,99931.16
2023-05-10T19:43:27.694Z,99933.44
2023-05-10T19:45:55.003Z,99935.41
2023-05-10T19:48:21.624Z,99933.84
2023-05-10T19:50:48.145Z,99929.06
2023-05-10T19:53:14.765Z,99925.84
2023-05-10T19:55:41.516Z,99934.41
2023-05-10T19:58:08.194Z,99927.81
2023-05-10T20:00:34.979Z,99929.06
2023-05-10T20:03:02.992Z,99930.19
2023-05-10T20:05:29.528Z,99931.31
2023-05-10T20:07:56.079Z,99927.66
2023-05-10T20:10:24.675Z,99933.69
2023-05-10T20:12:52.893Z,99937.06
2023-05-10T20:15:22.159Z,99935.50
2023-05-10T20:17:51.081Z,99939.84
2023-05-10T20:20:18.369Z,99938.72
2023-05-10T20:22:45.678Z,99935.22
2023-05-10T20:25:13.649Z,99933.66
2023-05-10T20:27:40.364Z,99933.91
2023-05-10T20:30:09.638Z,99938.66
2023-05-10T20:32:37.220Z,99937.03
2023-05-10T20:35:04.238Z,99936.03
2023-05-10T20:37:31.284Z,99937.06
2023-05-10T20:39:57.953Z,99934.72
2023-05-10T20:42:24.610Z,99938.78
2023-05-10T20:44:51.188Z,99942.03
2023-05-10T20:47:18.093Z,99937.41
2023-05-10T20:49:44.641Z,99942.97
2023-05-10T20:52:11.298Z,99949.34
2023-05-10T20:54:37.840Z,99943.16
2023-05-10T20:57:04.384Z,99949.72
2023-05-10T20:59:30.889Z,99947.88
2023-05-10T21:01:57.914Z,99939.00
2023-05-10T21:04:25.772Z,99947.56
2023-05-10T21:06:53.062Z,99945.31
2023-05-10T21:09:19.755Z,99944.50
2023-05-10T21:11:46.475Z,99947.19
2023-05-10T21:14:13.129Z,99945.03
2023-05-10T21:16:39.999Z,99941.25
2023-05-10T21:19:07.597Z,99949.53
2023-05-10T21:21:34.524Z,99943.47
2023-05-10T21:24:01.212Z,99948.41
2023-05-10T21:26:27.770Z,99939.88
2023-05-10T21:28:54.463Z,99943.69
2023-05-10T21:31:21.405Z,99944.91
2023-05-10T21:33:47.992Z,99947.88
2023-05-10T21:36:14.601Z,99944.53
2023-05-10T21:38:44.183Z,99950.09
2023-05-10T21:41:11.071Z,99952.50
2023-05-10T21:43:37.645Z,99942.72
2023-05-10T21:46:04.749Z,99952.41
2023-05-10T21:48:31.410Z,99951.78
2023-05-10T21:50:58.878Z,99949.94
2023-05-10T21:53:25.465Z,99953.56
2023-05-10T21:55:52.173Z,99957.19
2023-05-10T21:58:18.936Z,99958.28
2023-05-10T22:00:46.012Z,99962.03
2023-05-10T22:03:12.726Z,99962.00
2023-05-10T22:05:39.424Z,99965.56
2023-05-10T22:08:07.014Z,99955.59
2023-05-10T22:10:33.928Z,99963.13
2023-05-10T22:13:00.708Z,99959.72
2023-05-10T22:15:27.990Z,99960.28
2023-05-10T22:17:54.544Z,99959.56
2023-05-10T22:20:21.147Z,99954.00
2023-05-10T22:22:47.746Z,99963.59
2023-05-10T22:25:14.516Z,99970.16
2023-05-10T22:27:41.412Z,99969.31
2023-05-10T22:30:08.684Z,99964.97
2023-05-10T22:32:35.246Z,99968.59
2023-05-10T22:35:02.269Z,99969.06
2023-05-10T22:37:28.800Z,99964.84
2023-05-10T22:39:55.311Z,99965.22
2023-05-10T22:42:21.873Z,99960.63
2023-05-10T22:44:48.402Z,99966.75
2023-05-10T22:47:14.930Z,99966.84
2023-05-10T22:49:41.465Z,99969.09
2023-05-10T22:52:08.144Z,99966.59
2023-05-10T22:54:36.250Z,99967.72
2023-05-10T22:57:03.123Z,99965.66
2023-05-10T22:59:29.676Z,99967.22
2023-05-10T23:01:56.278Z,99973.44
2023-05-10T23:04:22.906Z,99976.06
2023-05-10T23:06:49.487Z,99965.34
2023-05-10T23:09:16.419Z,99968.69
2023-05-10T23:11:42.975Z,99975.94
2023-05-10T23:14:09.495Z,99976.03
2023-05-10T23:16:36.243Z,99970.47
2023-05-10T23:19:02.920Z,99973.53
2023-05-10T23:21:31.898Z,99972.44
2023-05-10T23:23:59.962Z,99973.72
2023-05-10T23:26:27.455Z,99968.63
2023-05-10T23:28:54.027Z,99970.03
2023-05-10T23:31:21.054Z,99973.69
2023-05-10T23:33:47.626Z,99974.88
2023-05-10T23:36:14.165Z,99975.34
2023-05-10T23:38:40.684Z,99974.25
2023-05-10T23:41:07.173Z,99973.28
2023-05-10T23:43:33.676Z,99980.41
2023-05-10T23:46:01.587Z,99976.41
2023-05-10T23:48:28.261Z,99973.72
2023-05-10T23:50:54.821Z,99971.66
2023-05-10T23:53:21.416Z,99968.63
2023-05-10T23:55:47.957Z,99971.69
2023-05-10T23:58:14.483Z,99967.94
